• Join FlightAware (Why Join?)
  • Login
  • US Flag 
03:38PM EDT


 

Airport Tracker/Info


-or-


 

Live Flight TrackerFlight Track Log ✈ N950DN ✈ 04-May-2013 ✈ KMSP - KVQQ

Flight Track Log - Related Links

Times and Time Zones

All times are in EDT time to prevent confusion due to time zone crossing. See the N950DN flight status page for this flight to view local times or setup timezone preferences in your user account.

Time Position Orientation Groundspeed Altitude Reporting Facility
EDT Latitude Longitude Course Direction KTS MPH feet Rate Location/Type
09:05AM 44.8833 -93.2500 276° West 173 199 2,300  Level Minneapolis TRACON
09:05AM 44.8875 -93.3039 276° West 221 254 2,900 2,520 Climbing Minneapolis Center
09:06AM 44.8308 -93.3406 205° Southwest 255 293 6,500 3,480 Climbing Minneapolis Center
09:08AM 44.7725 -93.2558 134° Southeast 265 305 10,800 2,520 Climbing Minneapolis Center
09:09AM 44.7103 -93.1375 126° Southeast 346 398 12,300 1,860 Climbing Minneapolis Center
09:10AM 44.6464 -93.0183 127° Southeast 381 438 14,700 2,400 Climbing Minneapolis Center
09:11AM 44.5789 -92.8917 127° Southeast 404 465 17,200 2,760 Climbing Minneapolis Center
09:12AM 44.5097 -92.7625 127° Southeast 414 476 20,300 2,880 Climbing Minneapolis Center
09:13AM 44.4306 -92.6167 127° Southeast 397 457 23,100 2,400 Climbing Minneapolis Center
09:14AM 44.3625 -92.4900 127° Southeast 406 467 25,200 1,920 Climbing Minneapolis Center
09:15AM 44.2989 -92.3569 124° Southeast 414 476 27,100 1,560 Climbing Minneapolis Center
09:16AM 44.2408 -92.2181 120° Southeast 415 478 28,400 1,260 Climbing Minneapolis Center
09:17AM 44.1781 -92.0747 121° Southeast 431 496 29,700 1,380 Climbing Minneapolis Center
09:18AM 44.1156 -91.9306 121° Southeast 436 502 31,300 1,560 Climbing Minneapolis Center
09:19AM 44.0525 -91.7889 122° Southeast 434 499 32,900 780 Climbing Minneapolis Center
09:20AM 43.9944 -91.6578 122° Southeast 430 495 33,000  Climbing Minneapolis Center
09:21AM 43.9214 -91.4917 121° Southeast 424 488 33,000  Level Minneapolis Center
09:22AM 43.8422 -91.3719 132° Southeast 423 487 33,000  Level Minneapolis Center
09:23AM 43.7600 -91.2550 134° Southeast 425 489 33,000  Level Minneapolis Center
09:24AM 43.6775 -91.1397 135° Southeast 423 487 33,000  Level Minneapolis Center
09:25AM 43.5947 -91.0258 135° Southeast 422 486 33,000  Level Minneapolis Center
09:26AM 43.5131 -90.9111 134° Southeast 421 484 33,000  Level Minneapolis Center
09:27AM 43.4300 -90.7972 135° Southeast 422 486 33,000  Level Minneapolis Center
09:28AM 43.3483 -90.6847 135° Southeast 420 483 33,000  Level Minneapolis Center
09:29AM 43.2828 -90.5969 136° Southeast 415 478 33,000  Level Chicago Center
09:30AM 43.2019 -90.4853 135° Southeast 414 476 33,000  Level Chicago Center
09:31AM 43.1206 -90.3750 135° Southeast 414 476 33,000  Level Chicago Center
09:32AM 43.0394 -90.2664 136° Southeast 411 473 33,000  Level Chicago Center
09:33AM 42.9439 -90.1364 135° Southeast 406 467 33,000  Level Chicago Center
09:34AM 42.8633 -90.0283 135° Southeast 407 468 33,000  Level Chicago Center
09:35AM 42.7833 -89.9211 135° Southeast 405 466 33,000  Level Chicago Center
09:36AM 42.6986 -89.8092 136° Southeast 405 466 33,000  Level Chicago Center
09:37AM 42.6172 -89.7025 136° Southeast 406 467 33,000  Level Chicago Center
09:38AM 42.5358 -89.5967 136° Southeast 407 468 33,000  Level Chicago Center
09:39AM 42.4561 -89.4908 136° Southeast 404 465 33,000  Level Chicago Center
09:40AM 42.3742 -89.3856 136° Southeast 405 466 33,000  Level Chicago Center
09:41AM 42.2797 -89.2614 136° Southeast 407 468 33,000  Level Chicago Center
09:42AM 42.1981 -89.1556 136° Southeast 408 470 33,000  Level Chicago Center
09:43AM 42.1172 -89.0489 136° Southeast 407 468 33,000  Level Chicago Center
09:44AM 42.0431 -88.9547 137° Southeast 409 471 33,000  Level Chicago Center
09:45AM 41.9292 -88.8567 147° Southeast 410 472 33,000  Level Chicago Center
09:46AM 41.8253 -88.7956 156° South 408 470 33,000  Level Chicago Center
09:47AM 41.7214 -88.7344 156° South 410 472 33,000  Level Chicago Center
09:48AM 41.6167 -88.6719 156° South 414 476 33,000  Level Chicago Center
09:49AM 41.5125 -88.6125 157° South 412 474 33,000  Level Chicago Center
09:50AM 41.4094 -88.5508 156° South 411 473 33,000  Level Chicago Center
09:51AM 41.2850 -88.4792 157° South 413 475 33,000  Level Chicago Center
09:52AM 41.1814 -88.4192 156° South 412 474 33,000  Level Chicago Center
09:53AM 41.0772 -88.3594 157° South 412 474 33,000  Level Chicago Center
09:54AM 40.9719 -88.2981 156° South 417 480 33,000  Level Chicago Center
09:55AM 40.8669 -88.2381 157° South 415 478 33,000  Level Chicago Center
09:56AM 40.7636 -88.1783 156° South 411 473 33,000  Level Chicago Center
09:57AM 40.6372 -88.1061 157° South 413 475 33,000  Level Chicago Center
09:59AM 40.5333 -88.0464 156° South 411 473 33,000  Level Chicago Center
10:00AM 40.4281 -87.9872 157° South 413 475 33,000  Level Chicago Center
10:01AM 40.3242 -87.9281 157° South 413 475 33,000  Level Chicago Center
10:02AM 40.2194 -87.8703 157° South 411 473 33,000  Level Chicago Center
10:03AM 40.1047 -87.8067 157° South 413 475 33,000  Level Chicago Center
10:04AM 39.9994 -87.7492 157° South 412 474 33,000  Level Chicago Center
10:05AM 39.8933 -87.6906 157° South 412 474 33,000  Level Indianapolis Center
10:06AM 39.7881 -87.6336 157° South 412 474 33,000  Level Indianapolis Center
10:07AM 39.6847 -87.5767 157° South 406 467 33,000  Level Indianapolis Center
10:08AM 39.5808 -87.5192 157° South 409 471 33,000  Level Indianapolis Center
10:09AM 39.4783 -87.4633 157° South 403 464 33,000  Level Indianapolis Center
10:10AM 39.3544 -87.3958 157° South 405 466 33,000  Level Indianapolis Center
10:11AM 39.2514 -87.3394 157° South 404 465 33,000  Level Indianapolis Center
10:12AM 39.1483 -87.2833 157° South 405 466 33,000  Level Indianapolis Center
10:13AM 39.0458 -87.2281 157° South 402 463 33,000  Level Indianapolis Center
10:14AM 38.9417 -87.1728 158° South 402 463 33,000  Level Indianapolis Center
10:15AM 38.8375 -87.1183 158° South 401 461 33,000  Level Indianapolis Center
10:16AM 38.7339 -87.0614 157° South 402 463 33,000  Level Indianapolis Center
10:17AM 38.6289 -87.0061 158° South 403 464 33,000  Level Indianapolis Center
10:18AM 38.5025 -86.9383 157° South 404 465 33,000 120 Level Indianapolis Center
10:19AM 38.3956 -86.8819 158° South 406 467 33,300 840 Climbing Indianapolis Center
10:20AM 38.2886 -86.8253 157° South 406 467 34,800 780 Climbing Indianapolis Center
10:21AM 38.1847 -86.7711 158° South 399 459 35,000 60 Climbing Indianapolis Center
10:22AM 38.0831 -86.7164 157° South 394 453 35,000  Level Indianapolis Center
10:23AM 37.9814 -86.6650 158° South 391 450 35,000  Level Indianapolis Center
10:24AM 37.8800 -86.6117 157° South 391 450 35,000  Level Indianapolis Center
10:25AM 37.7800 -86.5589 157° South 388 447 35,000  Level Indianapolis Center
10:26AM 37.6733 -86.5053 158° South 388 447 35,000  Level Indianapolis Center
10:27AM 37.5708 -86.4528 158° South 395 455 35,000  Level Indianapolis Center
10:28AM 37.4694 -86.4000 158° South 392 451 35,000  Level Indianapolis Center
10:29AM 37.3675 -86.3481 158° South 393 452 35,000  Level Indianapolis Center
10:30AM 37.3311 -86.3294 158° South 394 453 35,000  Level Memphis Center
10:31AM 37.2294 -86.2775 158° South 394 453 35,000  Level Memphis Center
10:32AM 37.1319 -86.2278 158° South 388 447 35,000  Level Memphis Center
10:33AM 37.0342 -86.1756 157° South 383 441 35,000  Level Memphis Center
10:34AM 36.9367 -86.1264 158° South 383 441 35,000  Level Memphis Center
10:35AM 36.8244 -86.0700 158° South 383 441 35,000  Level Memphis Center
10:36AM 36.7247 -86.0183 157° South 383 441 35,000  Level Memphis Center
10:37AM 36.6208 -85.9672 158° South 383 441 35,000  Level Memphis Center
10:38AM 36.5189 -85.9183 159° South 388 447 35,000  Level Memphis Center
10:39AM 36.4211 -85.8669 157° South 388 447 35,000  Level Memphis Center
10:40AM 36.3300 -85.8231 159° South 388 447 35,000  Level Memphis Center
10:41AM 36.2303 -85.7747 159° South 388 447 35,000  Level Memphis Center
10:42AM 36.1325 -85.7261 158° South 388 447 35,000  Level Memphis Center
10:43AM 36.0328 -85.6753 158° South 388 447 35,000  Level Memphis Center
10:44AM 35.9044 -85.6128 158° South 391 450 35,000  Level Atlanta Center
10:45AM 35.8047 -85.5647 159° South 391 450 35,000  Level Atlanta Center
10:46AM 35.7031 -85.5169 159° South 391 450 35,000  Level Atlanta Center
10:47AM 35.5892 -85.4611 158° South 391 450 35,000  Level Atlanta Center
10:48AM 35.4875 -85.4108 158° South 391 450 35,000  Level Atlanta Center
10:49AM 35.3836 -85.3608 159° South 396 456 35,000  Level Atlanta Center
10:50AM 35.2864 -85.2956 151° Southeast 396 456 35,000  Level Atlanta Center
10:51AM 35.1869 -85.2231 149° Southeast 402 463 35,000  Level Atlanta Center
10:52AM 35.0914 -85.1506 148° Southeast 412 474 35,000  Level Atlanta Center
10:53AM 34.9942 -85.0733 147° Southeast 412 474 35,000  Level Atlanta Center
10:54AM 34.8986 -84.9986 147° Southeast 412 474 35,000  Level Atlanta Center
10:55AM 34.8011 -84.9242 148° Southeast 412 474 35,000  Level Atlanta Center
10:56AM 34.7036 -84.8497 148° Southeast 412 474 35,000  Level Atlanta Center
10:57AM 34.6186 -84.7783 145° Southeast 412 474 35,000  Level Atlanta Center
10:58AM 34.5189 -84.7019 148° Southeast 417 480 35,000  Level Atlanta Center
10:59AM 34.4211 -84.6281 148° Southeast 417 480 35,000  Level Atlanta Center
11:00AM 34.3108 -84.5442 148° Southeast 422 486 35,000  Level Atlanta Center
11:01AM 34.2108 -84.4683 148° Southeast 427 491 35,000  Level Atlanta Center
11:02AM 34.1153 -84.4000 149° Southeast 427 491 35,000  Level Atlanta Center
11:03AM 34.0089 -84.3219 149° Southeast 438 504 35,000  Level Atlanta Center
11:04AM 33.9108 -84.2467 147° Southeast 438 504 35,000  Level Atlanta Center
11:05AM 33.8089 -84.1664 147° Southeast 438 504 35,000  Level Atlanta Center
11:06AM 33.7044 -84.0861 147° Southeast 438 504 35,000  Level Atlanta Center
11:07AM 33.5939 -84.0264 156° South 438 504 35,000  Level Atlanta Center
11:08AM 33.4769 -83.9792 161° South 444 511 35,000  Level Atlanta Center
11:09AM 33.3517 -83.9294 162° South 444 511 35,000  Level Atlanta Center
11:10AM 33.2328 -83.8775 160° South 444 511 35,000 -420 Level Atlanta Center
11:11AM 33.1178 -83.8306 161° South 444 511 34,200 -780 Descending Atlanta Center
11:12AM 33.0239 -83.7886 159° South 444 511 33,500 -840 Descending Atlanta Center
11:13AM 32.8983 -83.7394 162° South 444 511 32,600 -1,020 Descending Atlanta Center
11:14AM 32.7772 -83.6856 159° South 444 511 31,500 -1,140 Descending Atlanta Center
11:15AM 32.6581 -83.6219 156° South 455 524 30,400 -960 Descending Atlanta Center
11:16AM 32.5575 -83.5214 140° Southeast 461 531 29,600 -900 Descending Atlanta Center
11:17AM 32.4589 -83.4183 139° Southeast 466 536 28,600 -1,140 Descending Atlanta Center
11:19AM 32.2747 -83.2342 140° Southeast 479 551 26,600 -1,200 Descending Jacksonville Center
11:20AM 32.1725 -83.1331 140° Southeast 479 551 25,500 -1,140 Descending Jacksonville Center
11:21AM 32.0725 -83.0347 140° Southeast 479 551 24,400 -900 Descending Jacksonville Center
11:22AM 31.9725 -82.9367 140° Southeast 479 551 23,700 -840 Descending Jacksonville Center
11:23AM 31.8742 -82.8389 140° Southeast 474 545 22,800 -780 Descending Jacksonville Center
11:24AM 31.7781 -82.7436 140° Southeast 469 540 22,200 -720 Descending Jacksonville Center
11:25AM 31.6778 -82.6508 142° Southeast 464 534 21,400 -780 Descending Jacksonville Center
11:26AM 31.5814 -82.5561 140° Southeast 459 528 20,700 -600 Descending Jacksonville Center
11:27AM 31.4789 -82.4808 148° Southeast 454 522 20,200 -540 Descending Jacksonville Center
11:28AM 31.3661 -82.4231 156° South 441 507 19,700 -660 Descending Jacksonville Center
11:29AM 31.2636 -82.3772 159° South 435 501 18,900 -1,260 Descending Jacksonville Center
11:29AM 31.1672 -82.3269 156° South 431 496 17,500 -2,220 Descending Jacksonville Center
11:30AM 31.1253 -82.3078 159° South 419 482 16,300 -2,700 Descending Jacksonville Center
11:31AM 31.0522 -82.2717 157° South 424 488 14,300 -2,340 Descending Jacksonville Center
11:32AM 30.9600 -82.2167 153° Southeast 394 453 12,100 -2,400 Descending Jacksonville Center
11:32AM 30.9222 -82.1975 156° South 344 396 11,100 -1,620 Descending Jacksonville Center
11:33AM 30.8742 -82.1786 161° South 360 414 10,500 -1,140 Descending Jacksonville Center
11:33AM 30.8450 -82.1692 164° South 305 351 10,100 -1,020 Descending Jacksonville Center
11:34AM 30.7967 -82.1550 166° South 319 367 9,500 -1,320 Descending Jacksonville Center
11:34AM 30.7611 -82.1431 164° South 263 303 8,500 -1,500 Descending Jacksonville Center
11:35AM 30.7256 -82.1314 164° South 287 330 8,000 -1,440 Descending Jacksonville Center
11:35AM 30.6881 -82.1292 177° South 259 298 7,100 -1,500 Descending Jacksonville Center
11:36AM 30.6547 -82.1247 173° South 267 307 6,500 -1,440 Descending Jacksonville Center
11:36AM 30.6233 -82.1250 180° South 252 290 5,800 -1,800 Descending Jacksonville Center
11:37AM 30.5775 -82.1228 178° South 255 293 4,700 -1,620 Descending Jacksonville Center
11:37AM 30.5439 -82.1231 180° South 246 283 4,000 -1,500 Descending Jacksonville Center
11:38AM 30.5106 -82.1258 184° South 248 285 3,200 -1,020 Descending Jacksonville Center
11:38AM 30.4772 -82.1261 180° South 243 280 3,000 -300 Descending Jacksonville Center
11:39AM 30.4458 -82.1264 180° South 248 285 2,900 -120 Descending Jacksonville Center
11:39AM 30.4061 -82.1292 183° South 231 266 2,900 -420 Level Jacksonville Center
11:40AM 30.3561 -82.1367 187° South 201 231 2,300 -480 Descending Jacksonville Center
11:41AM 30.3039 -82.1178 163° South 153 176 2,000 -180 Descending Jacksonville Center
11:42AM 30.2744 -82.0989 151° Southeast 154 177 2,000  Level Jacksonville Center
11:43AM 30.2511 -82.0533 121° Southeast 112 129 2,000 -60 Level Jacksonville Center
11:44AM 30.2428 -82.0244 108° East 116 133 1,900 -180 Descending Jacksonville Center
11:45AM 30.2342 -81.9886 106° East 117 135 1,700 -420 Descending Jacksonville Center
11:46AM 30.2256 -81.9503 105° East 119 137 1,100  Descending Jacksonville Center
11:47AM 30.2147 -81.9094 107° East 124 143 1,800 720 Climbing Jacksonville Center
11:48AM 30.1794 -81.9267 203° Southwest 233 268 2,600 600 Climbing Jacksonville Center
11:49AM 30.1756 -81.9914 266° West 221 254 3,000 180 Climbing Jacksonville Center
11:50AM 30.1719 -82.0636 267° West 221 254 3,000  Level Jacksonville Center
11:51AM 30.1722 -82.1236 270° West 220 253 3,000 540 Level Jacksonville Center
11:52AM 30.2183 -82.1161 North 174 200 4,100 900 Climbing Jacksonville Center
11:54AM 30.2468 -81.9653 78° East  Level FlightAware Approximate
11:54AM 30.2172 -81.9864 78° East 181 208 6,000  Level Jacksonville Center
11:55AM 30.2128 -81.9431 97° East 180 207 6,000  Level Jacksonville Center
11:56AM 30.2125 -81.8783 90° East 182 209 6,000  Level Jacksonville Center
11:57AM 30.1703 -81.8475 148° Southeast 181 208 6,000  Level Jacksonville Center
11:58AM 30.1289 -81.8886 221° Southwest 234 269 6,000  Level Jacksonville Center
11:59AM 30.1419 -81.9631 281° West 232 267 6,000  Level Jacksonville Center
12:00PM 30.1614 -82.0350 287° West 231 266 6,000  Level Jacksonville Center